Hammondsville, Vermont
Current Conditions -  °F | °C
As of 7:54 PM on Monday 20 Oct 2014 (Local Time) from KVSF Reporting Station
Overcast Overcast  
Wind Chill:   Ceiling: 8000
Heat Index:   Visibility: 8mi
Dew Point:   Wind: 0mph
Humidity: 76%   Direction: NA
Pressure: 29.95"   Gusts: NA
Location:  43.4984°N, 72.5943°W
Report Text: KVSF 202354Z AUTO 00000KT 8SM OVC080 08/04 A2995 RMK AO2 SLP149 T00780039 10128 20078 51007
Loading
Personal Weather Stations






























Interactive Weather Map
Tropical Storm Tracking
New forecast layout! Learn more

10-Day Weather Forecast

Advertisements
Track Severe Weather on mobile